Time;durP1;ratioP1;P1;durP2;ratioP2;P2;SDS_P1;SDS_P2;PMS_P1;PMS_P2;Temp;Humidity;BMP_temperature;BMP_pressure;BME280_temperature;BME280_humidity;BME280_pressure;Samples;Min_cycle;Max_cycle;Signal;HPM_P1;HPM_P2
2023/06/17 00:00:27;;;;;;;14.77;12.95;;;;;;;;;;4837201;29;20052;-69
2023/06/17 00:02:52;;;;;;;18.73;12.85;;;;;;;;;;4847755;28;20041;-69
2023/06/17 00:05:17;;;;;;;17.88;12.73;;;;;;;;;;4872755;28;20044;-68
2023/06/17 00:07:43;;;;;;;15.65;13.10;;;;;;;;;;4847708;28;20065;-68
2023/06/17 00:10:09;;;;;;;16.35;14.63;;;;;;;;;;4839627;28;20069;-69
2023/06/17 00:12:36;;;;;;;14.77;13.18;;;;;;;;;;4835777;29;20046;-69
2023/06/17 00:15:02;;;;;;;16.42;14.48;;;;;;;;;;4872134;28;20057;-69
2023/06/17 00:17:31;;;;;;;17.90;15.95;;;;;;;;;;4877893;28;20044;-68
2023/06/17 00:20:00;;;;;;;16.77;14.60;;;;;;;;;;4864573;28;20048;-68
2023/06/17 00:22:26;;;;;;;15.45;13.85;;;;;;;;;;4860032;28;20160;-68
2023/06/17 00:24:54;;;;;;;17.63;14.07;;;;;;;;;;4864697;28;20445;-68
2023/06/17 00:27:19;;;;;;;16.15;14.45;;;;;;;;;;4863370;28;20985;-68
2023/06/17 00:29:44;;;;;;;16.73;14.98;;;;;;;;;;4866236;28;20041;-68
2023/06/17 00:32:10;;;;;;;18.42;15.65;;;;;;;;;;4864953;28;20091;-68
2023/06/17 00:34:35;;;;;;;19.38;15.85;;;;;;;;;;4879137;28;20032;-68
2023/06/17 00:37:00;;;;;;;17.35;15.55;;;;;;;;;;4863487;28;20045;-68
2023/06/17 00:39:28;;;;;;;16.42;13.75;;;;;;;;;;4864161;28;20115;-68
2023/06/17 00:41:53;;;;;;;17.15;14.45;;;;;;;;;;4847591;28;20036;-68
2023/06/17 00:44:18;;;;;;;15.30;13.52;;;;;;;;;;4864283;28;20044;-68
2023/06/17 00:46:46;;;;;;;16.80;14.05;;;;;;;;;;4863491;28;20110;-69
2023/06/17 00:49:16;;;;;;;16.60;14.68;;;;;;;;;;4861931;28;20071;-69
2023/06/17 00:51:44;;;;;;;17.13;15.32;;;;;;;;;;4864685;28;20041;-69
2023/06/17 00:54:12;;;;;;;16.67;14.88;;;;;;;;;;4879306;28;20078;-68
2023/06/17 00:56:37;;;;;;;15.40;13.80;;;;;;;;;;4862686;28;20047;-68
2023/06/17 00:59:03;;;;;;;16.00;14.30;;;;;;;;;;4862457;28;20128;-69
2023/06/17 01:01:29;;;;;;;17.35;15.40;;;;;;;;;;4877714;28;20123;-68
2023/06/17 01:03:55;;;;;;;17.23;15.07;;;;;;;;;;4864859;28;20032;-68
2023/06/17 01:06:33;;;;;;;17.70;15.80;;;;;;;;;;4863041;28;20033;-69
2023/06/17 01:09:06;;;;;;;19.10;17.10;;;;;;;;;;4864347;28;20037;-69
2023/06/17 01:11:33;;;;;;;19.85;16.67;;;;;;;;;;4862812;28;20114;-69
2023/06/17 01:13:59;;;;;;;18.40;16.45;;;;;;;;;;4876492;28;20588;-67
2023/06/17 01:16:29;;;;;;;18.35;16.17;;;;;;;;;;4863785;28;20238;-67
2023/06/17 01:18:55;;;;;;;18.58;16.77;;;;;;;;;;4863471;28;20067;-68
2023/06/17 01:21:22;;;;;;;18.77;16.15;;;;;;;;;;4877796;28;20036;-67
2023/06/17 01:23:53;;;;;;;20.27;17.08;;;;;;;;;;4863188;28;20041;-68
2023/06/17 01:26:24;;;;;;;21.45;17.75;;;;;;;;;;4876925;28;20041;-69
2023/06/17 01:28:49;;;;;;;18.95;16.77;;;;;;;;;;4864747;28;20049;-71
2023/06/17 01:31:18;;;;;;;17.48;15.52;;;;;;;;;;4860732;28;20063;-69
2023/06/17 01:33:45;;;;;;;18.02;16.10;;;;;;;;;;4863964;28;20037;-68
2023/06/17 01:36:14;;;;;;;20.45;16.00;;;;;;;;;;4862384;28;20813;-68
2023/06/17 01:38:55;;;;;;;20.15;18.05;;;;;;;;;;4862475;28;20075;-68
2023/06/17 01:41:26;;;;;;;20.77;18.10;;;;;;;;;;4863680;28;20137;-68
2023/06/17 01:43:52;;;;;;;18.70;16.77;;;;;;;;;;4864235;28;20037;-67
2023/06/17 01:46:17;;;;;;;19.05;16.42;;;;;;;;;;4864791;28;20060;-67
2023/06/17 01:48:43;;;;;;;18.63;16.58;;;;;;;;;;4877950;28;20037;-67
2023/06/17 01:51:08;;;;;;;18.20;16.30;;;;;;;;;;4863776;28;20109;-67
2023/06/17 01:53:34;;;;;;;18.73;16.73;;;;;;;;;;4860210;28;20037;-68
2023/06/17 01:55:59;;;;;;;19.08;16.35;;;;;;;;;;4863755;28;20045;-68
2023/06/17 01:58:24;;;;;;;22.35;18.80;;;;;;;;;;4865111;28;20069;-68
2023/06/17 02:00:50;;;;;;;20.58;18.40;;;;;;;;;;4867281;28;20043;-68
2023/06/17 02:03:17;;;;;;;22.65;20.38;;;;;;;;;;4866473;28;20049;-68
2023/06/17 02:05:43;;;;;;;22.00;19.80;;;;;;;;;;4867618;28;20176;-68
2023/06/17 02:08:09;;;;;;;23.88;21.48;;;;;;;;;;4866475;28;20040;-67
2023/06/17 02:10:37;;;;;;;24.48;21.33;;;;;;;;;;4881147;28;20045;-68
2023/06/17 02:13:07;;;;;;;22.77;20.38;;;;;;;;;;4865556;28;20083;-68
2023/06/17 02:15:33;;;;;;;23.17;20.87;;;;;;;;;;4928001;28;20085;-68
2023/06/17 02:17:59;;;;;;;23.48;21.08;;;;;;;;;;4865774;28;20055;-68
2023/06/17 02:20:24;;;;;;;22.95;20.25;;;;;;;;;;4864924;28;20095;-68
2023/06/17 02:22:49;;;;;;;25.88;21.77;;;;;;;;;;4866193;28;20140;-68
2023/06/17 02:25:17;;;;;;;24.15;21.63;;;;;;;;;;4881193;28;20047;-68
2023/06/17 02:27:42;;;;;;;24.77;21.65;;;;;;;;;;4880210;28;20046;-68
2023/06/17 02:30:09;;;;;;;25.75;23.05;;;;;;;;;;4865882;28;20037;-68
2023/06/17 02:32:34;;;;;;;27.33;23.90;;;;;;;;;;4865230;28;20047;-68
2023/06/17 02:35:03;;;;;;;25.70;23.05;;;;;;;;;;4864719;28;20053;-68
2023/06/17 02:37:31;;;;;;;28.00;23.37;;;;;;;;;;4865182;28;20047;-68
2023/06/17 02:39:56;;;;;;;26.58;22.95;;;;;;;;;;4864869;28;20278;-68
2023/06/17 02:42:21;;;;;;;25.42;22.58;;;;;;;;;;4865479;28;20100;-68
2023/06/17 02:44:46;;;;;;;25.85;23.17;;;;;;;;;;4864650;28;20037;-68
2023/06/17 02:47:12;;;;;;;25.60;22.65;;;;;;;;;;4865451;28;20055;-69
2023/06/17 02:49:37;;;;;;;32.55;26.27;;;;;;;;;;4865274;28;20041;-67
2023/06/17 02:52:05;;;;;;;27.58;24.13;;;;;;;;;;4878700;28;20079;-68
2023/06/17 02:54:32;;;;;;;28.13;25.08;;;;;;;;;;4861383;28;20048;-68
2023/06/17 02:56:58;;;;;;;27.38;23.13;;;;;;;;;;4863071;28;20048;-68
2023/06/17 02:59:23;;;;;;;29.17;22.75;;;;;;;;;;4866912;28;20037;-68
2023/06/17 03:01:48;;;;;;;28.25;23.10;;;;;;;;;;4867148;28;20092;-68
2023/06/17 03:04:14;;;;;;;24.52;21.75;;;;;;;;;;4879219;28;20080;-68
2023/06/17 03:06:41;;;;;;;27.85;24.73;;;;;;;;;;4864994;28;20052;-71
2023/06/17 03:09:07;;;;;;;25.33;22.42;;;;;;;;;;4865150;28;20165;-72
2023/06/17 03:11:32;;;;;;;24.10;21.67;;;;;;;;;;4864140;28;20061;-71
2023/06/17 03:13:57;;;;;;;24.58;21.92;;;;;;;;;;4865015;28;20036;-71
2023/06/17 03:16:25;;;;;;;22.75;19.95;;;;;;;;;;4864715;28;20055;-71
2023/06/17 03:18:51;;;;;;;23.85;21.35;;;;;;;;;;4866115;28;20084;-71
2023/06/17 03:21:16;;;;;;;22.38;19.98;;;;;;;;;;4866433;28;20135;-71
2023/06/17 03:23:42;;;;;;;21.67;19.48;;;;;;;;;;4866910;28;20079;-69
2023/06/17 03:26:09;;;;;;;22.35;19.95;;;;;;;;;;4863956;28;20082;-72
2023/06/17 03:28:36;;;;;;;21.10;18.90;;;;;;;;;;4864480;28;20035;-71
2023/06/17 03:31:02;;;;;;;20.27;17.85;;;;;;;;;;4866498;28;20044;-72
2023/06/17 03:33:28;;;;;;;20.05;16.75;;;;;;;;;;4865819;28;20091;-72
2023/06/17 03:35:53;;;;;;;21.10;17.73;;;;;;;;;;4863765;28;20164;-71
2023/06/17 03:38:21;;;;;;;19.90;17.70;;;;;;;;;;4867272;28;20036;-72
2023/06/17 03:40:46;;;;;;;21.55;17.83;;;;;;;;;;4865949;28;20045;-67
2023/06/17 03:43:13;;;;;;;21.00;16.88;;;;;;;;;;4864035;28;20098;-67
2023/06/17 03:45:39;;;;;;;21.88;18.30;;;;;;;;;;4864531;28;20718;-67
2023/06/17 03:48:05;;;;;;;20.58;18.08;;;;;;;;;;4864843;28;20040;-67
2023/06/17 03:50:30;;;;;;;19.60;17.00;;;;;;;;;;4865301;28;20526;-68
2023/06/17 03:52:56;;;;;;;19.55;17.52;;;;;;;;;;4864508;28;20169;-68
2023/06/17 03:55:22;;;;;;;20.10;17.63;;;;;;;;;;4864640;28;20048;-68
2023/06/17 03:57:47;;;;;;;20.92;18.17;;;;;;;;;;4863513;28;20037;-67
2023/06/17 04:00:15;;;;;;;20.10;17.85;;;;;;;;;;4865252;28;20045;-67
2023/06/17 04:02:44;;;;;;;20.48;17.85;;;;;;;;;;4864817;28;20060;-67
2023/06/17 04:05:11;;;;;;;22.83;18.92;;;;;;;;;;4879312;28;20040;-68
2023/06/17 04:07:38;;;;;;;22.42;20.10;;;;;;;;;;4862904;28;20036;-68
2023/06/17 04:10:04;;;;;;;25.48;20.10;;;;;;;;;;4864519;28;20072;-68
2023/06/17 04:12:29;;;;;;;23.20;19.98;;;;;;;;;;4864598;28;20051;-68
2023/06/17 04:14:54;;;;;;;23.92;21.13;;;;;;;;;;4863913;28;20522;-68
2023/06/17 04:17:20;;;;;;;25.38;21.63;;;;;;;;;;4864351;28;20037;-69
2023/06/17 04:19:45;;;;;;;24.48;21.88;;;;;;;;;;4862387;28;20056;-69
2023/06/17 04:22:10;;;;;;;25.10;20.58;;;;;;;;;;4865148;28;20088;-67
2023/06/17 04:24:38;;;;;;;23.85;21.00;;;;;;;;;;4864133;28;20033;-67
2023/06/17 04:27:06;;;;;;;25.80;22.40;;;;;;;;;;4864199;28;20037;-68
2023/06/17 04:29:34;;;;;;;24.23;21.80;;;;;;;;;;4860988;28;20587;-68
2023/06/17 04:32:01;;;;;;;28.45;25.63;;;;;;;;;;4877554;28;20526;-68
2023/06/17 04:34:26;;;;;;;26.92;24.10;;;;;;;;;;4863418;28;20892;-68
2023/06/17 04:36:57;;;;;;;28.48;25.58;;;;;;;;;;4879040;28;20131;-68
2023/06/17 04:39:26;;;;;;;27.70;24.70;;;;;;;;;;4864371;28;20072;-68
2023/06/17 04:41:52;;;;;;;28.50;25.45;;;;;;;;;;4863972;28;20115;-68
2023/06/17 04:44:20;;;;;;;25.30;22.70;;;;;;;;;;4865072;28;20043;-68
2023/06/17 04:46:48;;;;;;;25.48;22.83;;;;;;;;;;4865276;28;20067;-68
2023/06/17 04:49:13;;;;;;;26.75;24.02;;;;;;;;;;4863632;28;20132;-68
2023/06/17 04:51:41;;;;;;;22.23;19.88;;;;;;;;;;4860358;28;20044;-69
2023/06/17 04:54:07;;;;;;;24.48;21.83;;;;;;;;;;4862575;28;20037;-68
2023/06/17 04:56:32;;;;;;;25.80;23.13;;;;;;;;;;4862622;28;20056;-67
2023/06/17 04:58:58;;;;;;;22.65;20.35;;;;;;;;;;4861648;28;20045;-65
2023/06/17 05:01:23;;;;;;;22.85;20.45;;;;;;;;;;4861754;28;20041;-65
2023/06/17 05:03:48;;;;;;;24.02;21.15;;;;;;;;;;4864699;28;20032;-66
2023/06/17 05:06:14;;;;;;;21.92;19.75;;;;;;;;;;4863301;28;20041;-66
2023/06/17 05:08:39;;;;;;;23.45;19.35;;;;;;;;;;4863725;28;20052;-65
2023/06/17 05:11:06;;;;;;;22.88;20.63;;;;;;;;;;4862128;28;20071;-66
2023/06/17 05:13:32;;;;;;;19.50;16.90;;;;;;;;;;4860853;28;20123;-65
2023/06/17 05:15:57;;;;;;;17.42;15.63;;;;;;;;;;4859486;28;20162;-66
2023/06/17 05:18:22;;;;;;;16.50;14.80;;;;;;;;;;4862009;28;20131;-65
2023/06/17 05:20:48;;;;;;;14.40;11.82;;;;;;;;;;4862915;28;20107;-65
2023/06/17 05:23:13;;;;;;;17.27;11.60;;;;;;;;;;4863227;28;20056;-66
2023/06/17 05:25:38;;;;;;;10.40;9.27;;;;;;;;;;4862748;28;20842;-64
2023/06/17 05:28:06;;;;;;;12.73;9.13;;;;;;;;;;4863353;28;20037;-65
2023/06/17 05:30:32;;;;;;;12.13;8.18;;;;;;;;;;4863966;28;20099;-66
2023/06/17 05:32:57;;;;;;;12.38;6.95;;;;;;;;;;4863155;28;20072;-66
2023/06/17 05:35:22;;;;;;;9.68;6.43;;;;;;;;;;4866155;28;20076;-67
2023/06/17 05:37:47;;;;;;;8.07;5.57;;;;;;;;;;4866729;28;20052;-66
2023/06/17 05:40:13;;;;;;;6.60;5.78;;;;;;;;;;4865150;28;20084;-66
2023/06/17 05:42:38;;;;;;;9.43;5.85;;;;;;;;;;4865359;28;20410;-66
2023/06/17 05:45:04;;;;;;;8.05;5.80;;;;;;;;;;4863954;28;20036;-66
2023/06/17 05:47:29;;;;;;;7.35;5.82;;;;;;;;;;4862121;28;20041;-67
2023/06/17 05:49:54;;;;;;;8.70;5.65;;;;;;;;;;4865932;28;20066;-67
2023/06/17 05:52:20;;;;;;;6.05;5.28;;;;;;;;;;4879559;28;20040;-66
2023/06/17 05:54:45;;;;;;;9.15;5.68;;;;;;;;;;4880346;28;20545;-66
2023/06/17 05:57:13;;;;;;;6.47;5.50;;;;;;;;;;4866605;28;20075;-66
2023/06/17 05:59:38;;;;;;;6.93;5.28;;;;;;;;;;4849330;28;20116;-67
2023/06/17 06:02:03;;;;;;;7.63;5.53;;;;;;;;;;4866362;28;21093;-67
2023/06/17 06:04:29;;;;;;;7.20;4.82;;;;;;;;;;4879266;28;20048;-67
2023/06/17 06:06:55;;;;;;;8.20;4.63;;;;;;;;;;4880600;28;20063;-66
2023/06/17 06:09:20;;;;;;;8.75;5.30;;;;;;;;;;4863763;28;20135;-69
2023/06/17 06:11:48;;;;;;;6.28;5.05;;;;;;;;;;4864323;28;20037;-66
2023/06/17 06:14:13;;;;;;;5.80;4.53;;;;;;;;;;4863374;28;20089;-65
2023/06/17 06:16:39;;;;;;;8.43;4.75;;;;;;;;;;4863389;28;20200;-64
2023/06/17 06:19:04;;;;;;;5.53;4.53;;;;;;;;;;4864705;28;20044;-66
2023/06/17 06:21:29;;;;;;;6.10;4.38;;;;;;;;;;4865309;28;20116;-66
2023/06/17 06:23:57;;;;;;;6.53;4.85;;;;;;;;;;4864334;28;20150;-66
2023/06/17 06:26:22;;;;;;;8.23;5.30;;;;;;;;;;4881170;28;20049;-66
2023/06/17 06:28:48;;;;;;;8.00;4.50;;;;;;;;;;4925210;28;20197;-66
2023/06/17 06:31:13;;;;;;;7.20;4.93;;;;;;;;;;4865849;28;20043;-67
2023/06/17 06:33:38;;;;;;;7.80;4.80;;;;;;;;;;4861334;28;20040;-67
2023/06/17 06:36:06;;;;;;;7.57;4.88;;;;;;;;;;4862534;28;20095;-66
2023/06/17 06:38:31;;;;;;;7.35;4.80;;;;;;;;;;4875278;28;20044;-68
2023/06/17 06:40:56;;;;;;;6.45;4.05;;;;;;;;;;4862046;28;21760;-67
2023/06/17 06:43:23;;;;;;;6.22;4.45;;;;;;;;;;4862560;28;20041;-65
2023/06/17 06:45:48;;;;;;;6.75;4.50;;;;;;;;;;4861684;28;20048;-66
2023/06/17 06:48:14;;;;;;;6.95;3.88;;;;;;;;;;4862533;28;20037;-66
2023/06/17 06:50:39;;;;;;;8.88;4.40;;;;;;;;;;4879227;28;20033;-67
2023/06/17 06:53:04;;;;;;;5.47;3.95;;;;;;;;;;4864746;28;20049;-67
2023/06/17 06:55:30;;;;;;;6.45;4.03;;;;;;;;;;4863770;28;20056;-66
2023/06/17 06:57:58;;;;;;;7.75;4.20;;;;;;;;;;4863041;28;20091;-67
2023/06/17 07:00:24;;;;;;;6.55;4.40;;;;;;;;;;4861908;28;20051;-67
2023/06/17 07:02:49;;;;;;;11.95;4.40;;;;;;;;;;4863869;28;20036;-69
2023/06/17 07:05:14;;;;;;;6.40;4.22;;;;;;;;;;4864227;28;20048;-69
2023/06/17 07:07:40;;;;;;;5.95;4.05;;;;;;;;;;4865432;28;20134;-67
2023/06/17 07:10:05;;;;;;;31.50;4.63;;;;;;;;;;4879882;28;20037;-68
2023/06/17 07:12:34;;;;;;;10.95;4.13;;;;;;;;;;4863935;28;20528;-69
2023/06/17 07:14:59;;;;;;;16.88;3.60;;;;;;;;;;4865789;28;20140;-69
2023/06/17 07:17:24;;;;;;;8.70;3.47;;;;;;;;;;4861439;28;20047;-68
2023/06/17 07:19:50;;;;;;;7.93;4.32;;;;;;;;;;4862849;28;20138;-68
2023/06/17 07:22:15;;;;;;;5.97;4.05;;;;;;;;;;4863382;28;20247;-68
2023/06/17 07:24:40;;;;;;;11.65;4.07;;;;;;;;;;4863940;28;20040;-68
2023/06/17 07:27:06;;;;;;;6.75;3.92;;;;;;;;;;4860808;28;20048;-62
2023/06/17 07:29:31;;;;;;;22.95;4.65;;;;;;;;;;4864166;28;20131;-67
2023/06/17 07:31:56;;;;;;;11.15;3.85;;;;;;;;;;4878774;28;20029;-69
2023/06/17 07:34:22;;;;;;;5.90;3.50;;;;;;;;;;4863676;28;20033;-67
2023/06/17 07:36:52;;;;;;;8.73;3.78;;;;;;;;;;4861177;28;20053;-67
2023/06/17 07:39:17;;;;;;;7.47;3.30;;;;;;;;;;4862686;28;20049;-68
2023/06/17 07:41:45;;;;;;;5.40;3.30;;;;;;;;;;4875254;28;20116;-67
2023/06/17 07:44:10;;;;;;;10.65;3.80;;;;;;;;;;4863079;28;20041;-67
2023/06/17 07:46:38;;;;;;;8.95;3.38;;;;;;;;;;4865812;28;20087;-67
2023/06/17 07:49:03;;;;;;;5.90;3.50;;;;;;;;;;4860043;28;20797;-68
2023/06/17 07:51:29;;;;;;;6.63;3.45;;;;;;;;;;4863657;28;20087;-67
2023/06/17 07:53:54;;;;;;;8.15;3.20;;;;;;;;;;4864545;28;20697;-66
2023/06/17 07:56:25;;;;;;;24.63;4.22;;;;;;;;;;4861033;28;20048;-67
2023/06/17 07:58:50;;;;;;;9.88;3.35;;;;;;;;;;4861626;28;20045;-68
2023/06/17 08:01:15;;;;;;;7.88;3.45;;;;;;;;;;4863472;28;20881;-67
2023/06/17 08:03:41;;;;;;;20.65;3.92;;;;;;;;;;4863722;29;20051;-68
2023/06/17 08:06:13;;;;;;;9.50;3.38;;;;;;;;;;4864764;28;20040;-67
2023/06/17 08:08:41;;;;;;;8.70;3.45;;;;;;;;;;4862712;28;20142;-67
2023/06/17 08:11:06;;;;;;;4.88;3.28;;;;;;;;;;4877289;28;20048;-66
2023/06/17 08:13:31;;;;;;;6.38;2.90;;;;;;;;;;4857653;28;20103;-67
2023/06/17 08:15:57;;;;;;;4.60;2.90;;;;;;;;;;4858248;28;20160;-67
2023/06/17 08:18:25;;;;;;;17.88;3.75;;;;;;;;;;4874520;28;20040;-69
2023/06/17 08:20:50;;;;;;;12.60;3.50;;;;;;;;;;4873092;28;20049;-67
2023/06/17 08:23:18;;;;;;;8.75;3.65;;;;;;;;;;4858144;28;20067;-67
2023/06/17 08:25:46;;;;;;;5.22;3.38;;;;;;;;;;4858160;28;20055;-65
2023/06/17 08:28:12;;;;;;;9.25;3.78;;;;;;;;;;4859629;28;22244;-66
2023/06/17 08:30:37;;;;;;;6.32;3.72;;;;;;;;;;4874271;28;20033;-70
2023/06/17 08:33:03;;;;;;;12.88;4.05;;;;;;;;;;4857327;28;20040;-67
2023/06/17 08:35:30;;;;;;;9.23;3.40;;;;;;;;;;4857618;28;20703;-67
2023/06/17 08:37:55;;;;;;;5.90;3.47;;;;;;;;;;4871414;28;20097;-66
2023/06/17 08:40:22;;;;;;;8.25;3.58;;;;;;;;;;4855186;28;20044;-66
2023/06/17 08:42:50;;;;;;;13.95;4.10;;;;;;;;;;4875239;28;20044;-66
2023/06/17 08:45:19;;;;;;;6.47;3.38;;;;;;;;;;4859633;28;20039;-66
2023/06/17 08:47:47;;;;;;;8.07;3.58;;;;;;;;;;4874976;28;20048;-66
2023/06/17 08:50:12;;;;;;;6.88;3.65;;;;;;;;;;4859050;28;20374;-66
2023/06/17 08:52:38;;;;;;;5.95;3.50;;;;;;;;;;4863318;28;20034;-66
2023/06/17 08:55:04;;;;;;;8.65;3.97;;;;;;;;;;4874011;28;20112;-67
2023/06/17 08:57:32;;;;;;;6.32;3.70;;;;;;;;;;4861105;28;22318;-66
2023/06/17 08:59:57;;;;;;;6.30;3.88;;;;;;;;;;4863909;28;20037;-66
2023/06/17 09:02:22;;;;;;;9.90;4.20;;;;;;;;;;4863592;28;20044;-66
2023/06/17 09:04:50;;;;;;;7.10;3.40;;;;;;;;;;4877638;28;20037;-66
2023/06/17 09:07:15;;;;;;;5.57;3.75;;;;;;;;;;4843941;28;20037;-67
2023/06/17 09:09:46;;;;;;;5.90;3.70;;;;;;;;;;4864502;28;20041;-66
2023/06/17 09:12:11;;;;;;;5.63;3.47;;;;;;;;;;4864969;28;20033;-67
2023/06/17 09:14:36;;;;;;;7.13;3.67;;;;;;;;;;4866818;28;20376;-66
2023/06/17 09:17:02;;;;;;;4.93;3.65;;;;;;;;;;4880852;28;20146;-66
2023/06/17 09:19:31;;;;;;;6.60;3.42;;;;;;;;;;4867726;28;20048;-68
2023/06/17 09:22:03;;;;;;;6.88;3.50;;;;;;;;;;4866463;28;20052;-67
2023/06/17 09:24:30;;;;;;;6.85;3.33;;;;;;;;;;4863876;28;20149;-66
2023/06/17 09:26:55;;;;;;;4.80;3.55;;;;;;;;;;4864613;28;20051;-68
2023/06/17 09:29:21;;;;;;;7.18;3.70;;;;;;;;;;4880206;28;20040;-66
2023/06/17 09:31:48;;;;;;;6.88;3.75;;;;;;;;;;4866704;28;20159;-67
2023/06/17 09:34:13;;;;;;;4.53;3.53;;;;;;;;;;4865619;29;20531;-68
2023/06/17 09:36:41;;;;;;;5.00;3.90;;;;;;;;;;4863876;28;20171;-67
2023/06/17 09:39:08;;;;;;;8.18;3.45;;;;;;;;;;4865019;28;20041;-67
2023/06/17 09:41:37;;;;;;;5.80;3.40;;;;;;;;;;4863842;28;20041;-68
2023/06/17 09:44:02;;;;;;;5.20;3.53;;;;;;;;;;4878920;28;20067;-67
2023/06/17 09:46:35;;;;;;;5.35;3.42;;;;;;;;;;4878602;28;20964;-67
2023/06/17 09:49:05;;;;;;;6.40;3.55;;;;;;;;;;4860324;28;20048;-67
2023/06/17 09:51:36;;;;;;;6.03;3.58;;;;;;;;;;4862612;28;20037;-68
2023/06/17 09:54:06;;;;;;;6.93;3.55;;;;;;;;;;4863639;29;20052;-68
2023/06/17 09:56:35;;;;;;;6.20;3.50;;;;;;;;;;4877379;28;20640;-66
2023/06/17 09:59:03;;;;;;;4.85;3.38;;;;;;;;;;4863381;28;20747;-67
2023/06/17 10:01:31;;;;;;;5.28;3.60;;;;;;;;;;4864300;28;20068;-66
2023/06/17 10:03:58;;;;;;;6.00;3.92;;;;;;;;;;4862815;28;20406;-66
2023/06/17 10:06:26;;;;;;;7.40;3.85;;;;;;;;;;4862671;28;20541;-69
2023/06/17 10:08:52;;;;;;;5.95;3.42;;;;;;;;;;4863090;28;20123;-67
2023/06/17 10:11:18;;;;;;;7.93;3.65;;;;;;;;;;4860370;28;20424;-67
2023/06/17 10:13:44;;;;;;;6.68;3.55;;;;;;;;;;4878156;28;20083;-68
2023/06/17 10:16:12;;;;;;;7.30;3.45;;;;;;;;;;4863648;28;20087;-69
2023/06/17 10:18:39;;;;;;;6.78;3.80;;;;;;;;;;4862059;28;21948;-67
2023/06/17 10:21:06;;;;;;;7.10;3.53;;;;;;;;;;4862238;28;20063;-69
2023/06/17 10:23:32;;;;;;;6.13;3.85;;;;;;;;;;4878127;28;20201;-68
2023/06/17 10:25:58;;;;;;;9.43;3.70;;;;;;;;;;4861524;28;20099;-68
2023/06/17 10:28:41;;;;;;;9.15;3.60;;;;;;;;;;4862754;28;20056;-68
2023/06/17 10:31:21;;;;;;;5.63;3.53;;;;;;;;;;4865032;28;20141;-68
2023/06/17 10:33:47;;;;;;;6.22;3.45;;;;;;;;;;4863232;28;20106;-66
2023/06/17 10:36:14;;;;;;;6.93;3.63;;;;;;;;;;4862892;28;20131;-67
2023/06/17 10:38:39;;;;;;;6.22;3.88;;;;;;;;;;4863347;28;20048;-68
2023/06/17 10:41:05;;;;;;;7.22;3.60;;;;;;;;;;4878692;28;20076;-66
2023/06/17 10:43:35;;;;;;;6.93;3.70;;;;;;;;;;4862878;28;20763;-67
2023/06/17 10:46:01;;;;;;;4.63;3.55;;;;;;;;;;4863056;28;20036;-67
2023/06/17 10:48:32;;;;;;;7.55;3.35;;;;;;;;;;4861883;28;20040;-67
2023/06/17 10:50:58;;;;;;;7.03;3.15;;;;;;;;;;4862947;28;20422;-67
2023/06/17 10:53:29;;;;;;;4.97;3.53;;;;;;;;;;4864665;28;20039;-67
2023/06/17 10:55:56;;;;;;;5.05;3.30;;;;;;;;;;4862669;28;20708;-68
2023/06/17 10:58:21;;;;;;;4.90;3.53;;;;;;;;;;4862003;28;20179;-67
2023/06/17 11:00:56;;;;;;;5.18;3.20;;;;;;;;;;4860865;28;20055;-67
2023/06/17 11:03:22;;;;;;;4.45;3.13;;;;;;;;;;4861391;28;20048;-67
2023/06/17 11:05:50;;;;;;;6.70;3.35;;;;;;;;;;4861414;28;20072;-68
2023/06/17 11:08:15;;;;;;;6.70;3.15;;;;;;;;;;4862205;28;20060;-66
2023/06/17 11:10:41;;;;;;;5.00;3.10;;;;;;;;;;4861043;28;20049;-66
2023/06/17 11:13:06;;;;;;;6.97;3.40;;;;;;;;;;4861532;28;20080;-67
2023/06/17 11:15:31;;;;;;;4.43;2.90;;;;;;;;;;4862572;28;20044;-66
2023/06/17 11:18:00;;;;;;;6.10;3.40;;;;;;;;;;4860169;28;20083;-67
2023/06/17 11:20:26;;;;;;;7.13;2.90;;;;;;;;;;4858029;28;20045;-68
2023/06/17 11:22:51;;;;;;;7.18;3.30;;;;;;;;;;4860983;28;20033;-66
2023/06/17 11:25:18;;;;;;;5.45;3.30;;;;;;;;;;4860370;28;20118;-68
2023/06/17 11:27:46;;;;;;;5.20;3.00;;;;;;;;;;4859586;28;20545;-67
2023/06/17 11:30:13;;;;;;;6.85;3.15;;;;;;;;;;4858339;28;20549;-66
2023/06/17 11:32:41;;;;;;;5.82;3.22;;;;;;;;;;4861396;28;20518;-67
2023/06/17 11:35:10;;;;;;;8.80;3.30;;;;;;;;;;4859937;28;20040;-68
2023/06/17 11:37:36;;;;;;;5.78;3.40;;;;;;;;;;4860595;29;20496;-66
2023/06/17 11:40:04;;;;;;;6.10;2.95;;;;;;;;;;4873638;28;20068;-66
2023/06/17 11:42:32;;;;;;;6.07;3.40;;;;;;;;;;4858968;28;20044;-69
2023/06/17 11:44:58;;;;;;;4.55;3.40;;;;;;;;;;4925319;28;20041;-68
2023/06/17 11:47:33;;;;;;;4.95;3.20;;;;;;;;;;4876315;28;20075;-68
2023/06/17 11:49:59;;;;;;;5.45;3.20;;;;;;;;;;4860572;28;20052;-66
2023/06/17 11:52:27;;;;;;;5.70;3.50;;;;;;;;;;4864564;28;20619;-68
2023/06/17 11:54:54;;;;;;;5.13;3.50;;;;;;;;;;4861097;28;20486;-67
2023/06/17 11:57:22;;;;;;;5.20;3.60;;;;;;;;;;4860847;28;22179;-68
2023/06/17 11:59:48;;;;;;;5.32;3.28;;;;;;;;;;4861397;28;20047;-68
2023/06/17 12:02:14;;;;;;;7.80;3.58;;;;;;;;;;4860159;28;20096;-69
2023/06/17 12:04:42;;;;;;;6.07;3.40;;;;;;;;;;4861777;28;20096;-68
2023/06/17 12:07:07;;;;;;;6.53;3.40;;;;;;;;;;4861805;28;20047;-68
2023/06/17 12:09:48;;;;;;;7.70;3.60;;;;;;;;;;4862061;28;20048;-69
2023/06/17 12:12:24;;;;;;;11.13;3.25;;;;;;;;;;4876763;28;20059;-68
2023/06/17 12:14:49;;;;;;;6.63;3.35;;;;;;;;;;4863182;28;20055;-67
2023/06/17 12:17:16;;;;;;;6.90;3.30;;;;;;;;;;4862869;28;20048;-67
2023/06/17 12:19:47;;;;;;;7.40;3.50;;;;;;;;;;4863494;28;20128;-64
2023/06/17 12:22:12;;;;;;;4.50;3.22;;;;;;;;;;4863286;28;20128;-66
2023/06/17 12:24:38;;;;;;;6.72;3.42;;;;;;;;;;4863909;28;20087;-67
2023/06/17 12:27:06;;;;;;;6.70;3.83;;;;;;;;;;4865042;28;20036;-67
2023/06/17 12:29:34;;;;;;;7.60;3.78;;;;;;;;;;4864780;29;20106;-69
2023/06/17 12:32:02;;;;;;;6.47;3.70;;;;;;;;;;4864221;29;20116;-68
2023/06/17 12:34:28;;;;;;;6.40;3.95;;;;;;;;;;4865030;28;20045;-71
2023/06/17 12:36:53;;;;;;;6.13;3.67;;;;;;;;;;4860088;28;20060;-67
2023/06/17 12:39:21;;;;;;;5.80;3.75;;;;;;;;;;4864702;28;20041;-67
2023/06/17 12:41:48;;;;;;;7.53;3.72;;;;;;;;;;4862432;28;20510;-67
2023/06/17 12:44:14;;;;;;;7.25;3.83;;;;;;;;;;4879847;28;20036;-67
2023/06/17 12:46:41;;;;;;;5.10;3.47;;;;;;;;;;4862003;28;20040;-66
2023/06/17 12:49:06;;;;;;;8.13;3.90;;;;;;;;;;4861264;28;20429;-65
2023/06/17 12:51:32;;;;;;;6.15;3.88;;;;;;;;;;4863817;28;20036;-67
2023/06/17 12:53:57;;;;;;;7.32;4.10;;;;;;;;;;4863668;28;20055;-71
2023/06/17 12:56:23;;;;;;;6.53;3.95;;;;;;;;;;4863153;28;20052;-72
2023/06/17 12:58:48;;;;;;;7.13;3.67;;;;;;;;;;4876863;28;20584;-71
2023/06/17 13:01:13;;;;;;;8.43;3.80;;;;;;;;;;4862628;28;20124;-70
2023/06/17 13:03:39;;;;;;;8.05;4.03;;;;;;;;;;4862722;28;20059;-69
2023/06/17 13:06:06;;;;;;;6.38;4.30;;;;;;;;;;4861961;28;20036;-69
2023/06/17 13:08:33;;;;;;;5.50;4.00;;;;;;;;;;4863396;28;20192;-70
2023/06/17 13:10:59;;;;;;;5.95;4.13;;;;;;;;;;4862410;28;20548;-68
2023/06/17 13:13:26;;;;;;;6.82;4.50;;;;;;;;;;4863679;28;20048;-70
2023/06/17 13:15:52;;;;;;;6.82;4.15;;;;;;;;;;4861855;28;20056;-69
2023/06/17 13:18:20;;;;;;;7.65;4.50;;;;;;;;;;4862948;28;20083;-67
2023/06/17 13:20:48;;;;;;;7.60;4.20;;;;;;;;;;4860109;28;21810;-70
2023/06/17 13:23:13;;;;;;;8.40;4.10;;;;;;;;;;4860931;28;20036;-70
2023/06/17 13:25:38;;;;;;;7.82;3.80;;;;;;;;;;4858413;28;20044;-71
2023/06/17 13:28:04;;;;;;;7.80;3.75;;;;;;;;;;4861489;28;21133;-70
2023/06/17 13:30:29;;;;;;;8.38;3.85;;;;;;;;;;4858154;28;20473;-70
2023/06/17 13:32:57;;;;;;;9.32;3.97;;;;;;;;;;4857561;28;20045;-67
2023/06/17 13:35:22;;;;;;;8.93;4.00;;;;;;;;;;4857375;28;20690;-69
2023/06/17 13:37:50;;;;;;;8.18;4.47;;;;;;;;;;4874245;28;20088;-69
2023/06/17 13:40:16;;;;;;;7.82;4.28;;;;;;;;;;4859283;28;20839;-69
2023/06/17 13:42:41;;;;;;;8.30;4.03;;;;;;;;;;4861120;28;20041;-70
2023/06/17 13:45:07;;;;;;;6.55;4.03;;;;;;;;;;4857809;28;20582;-68
2023/06/17 13:47:32;;;;;;;5.35;3.83;;;;;;;;;;4857326;28;20306;-68
2023/06/17 13:49:58;;;;;;;6.32;3.92;;;;;;;;;;4855460;28;20115;-70
2023/06/17 13:52:23;;;;;;;7.38;4.30;;;;;;;;;;4854817;28;20091;-71
2023/06/17 13:54:48;;;;;;;7.93;3.95;;;;;;;;;;4860577;28;20195;-70
2023/06/17 13:57:16;;;;;;;8.82;4.00;;;;;;;;;;4860620;28;20122;-68
2023/06/17 13:59:42;;;;;;;9.00;4.22;;;;;;;;;;4860226;28;20033;-68
2023/06/17 14:02:07;;;;;;;6.78;3.67;;;;;;;;;;4861575;28;20478;-68
2023/06/17 14:04:32;;;;;;;8.20;4.57;;;;;;;;;;4858906;28;20037;-70
2023/06/17 14:06:57;;;;;;;4.85;3.90;;;;;;;;;;4861104;28;20037;-68
2023/06/17 14:09:23;;;;;;;6.57;4.18;;;;;;;;;;4860506;28;20494;-69
2023/06/17 14:11:49;;;;;;;6.40;4.20;;;;;;;;;;4861529;28;20040;-69
2023/06/17 14:14:17;;;;;;;6.60;3.97;;;;;;;;;;4875096;28;20037;-70
2023/06/17 14:16:42;;;;;;;8.63;4.35;;;;;;;;;;4861109;28;20061;-68
2023/06/17 14:19:11;;;;;;;6.93;4.32;;;;;;;;;;4846570;28;21120;-70
2023/06/17 14:21:37;;;;;;;6.57;4.32;;;;;;;;;;4862026;28;20037;-70
2023/06/17 14:24:03;;;;;;;8.55;4.10;;;;;;;;;;4862957;28;20061;-71
2023/06/17 14:26:28;;;;;;;6.97;4.18;;;;;;;;;;4862667;28;20513;-69
2023/06/17 14:28:53;;;;;;;6.28;4.22;;;;;;;;;;4860116;28;20037;-69